DLH8HP ENTC-EDDF
Flight info
| Callsign | DLH8HP |
|---|---|
| Flight time | N/A |
| Altitude | 36000 |
| Route | AMIMO DCT SOMUB DCT ULMUG DCT AMSEV DCT KUGAL DCT EEL DCT SOGPO/N0439F370 DCT DIXAT DIXAT1A |
| Aircraft | A321/M-SDE2E3FGIJ1LORWXYZ/HB1 |
Departure
| Time | 2026-05-04 10:23 |
|---|---|
| Airport | Tromsø Airport (ENTC) |
Arrival
| Time | N/A |
|---|---|
| Airport | Frankfurt Main Airport (EDDF) |
| Time | Latitude | Longitude | Altitude | Speed | Heading |
|---|---|---|---|---|---|
| 2026-05-04 10:10 | 69.67818 | 18.90824 | 38 ft | 0 kts | 283° |
| 2026-05-04 10:16 | 69.67814 | 18.90877 | 36 ft | 4 kts | 281° |
| 2026-05-04 10:16 | 69.67809 | 18.90953 | 37 ft | 4 kts | 276° |
| 2026-05-04 10:16 | 69.67807 | 18.91030 | 39 ft | 4 kts | 269° |
| 2026-05-04 10:17 | 69.67810 | 18.91106 | 38 ft | 4 kts | 251° |
| 2026-05-04 10:17 | 69.67822 | 18.91159 | 36 ft | 2 kts | 196° |
| 2026-05-04 10:19 | 69.67824 | 18.91161 | 38 ft | 0 kts | 193° |
| 2026-05-04 10:20 | 69.67821 | 18.91159 | 39 ft | 2 kts | 193° |
| 2026-05-04 10:20 | 69.67783 | 18.91134 | 39 ft | 9 kts | 193° |
| 2026-05-04 10:20 | 69.67701 | 18.91080 | 39 ft | 14 kts | 193° |
| 2026-05-04 10:20 | 69.67645 | 18.91073 | 41 ft | 6 kts | 148° |
| 2026-05-04 10:21 | 69.67631 | 18.91161 | 42 ft | 5 kts | 104° |
| 2026-05-04 10:21 | 69.67619 | 18.91310 | 40 ft | 9 kts | 102° |
| 2026-05-04 10:21 | 69.67627 | 18.91421 | 38 ft | 6 kts | 33° |
| 2026-05-04 10:21 | 69.67637 | 18.91427 | 39 ft | 0 kts | 11° |
| 2026-05-04 10:22 | 69.67675 | 18.91449 | 40 ft | 31 kts | 12° |
| 2026-05-04 10:22 | 69.68142 | 18.91762 | 29 ft | 105 kts | 13° |
| 2026-05-04 10:22 | 69.69052 | 18.92383 | 98 ft | 155 kts | 14° |
| 2026-05-04 10:23 | 69.70092 | 18.93076 | 811 ft | 154 kts | 13° |
| 2026-05-04 10:23 | 69.71161 | 18.93738 | 1475 ft | 164 kts | 15° |
| 2026-05-04 10:25 | 69.79831 | 18.89945 | 4998 ft | 244 kts | 282° |
| 2026-05-04 10:25 | 69.80228 | 18.83495 | 6102 ft | 247 kts | 276° |
| 2026-05-04 10:25 | 69.80456 | 18.78545 | 6883 ft | 249 kts | 276° |
| 2026-05-04 10:25 | 69.80668 | 18.73551 | 7690 ft | 251 kts | 269° |
| 2026-05-04 10:26 | 69.80533 | 18.70151 | 8201 ft | 251 kts | 253° |
| 2026-05-04 10:26 | 69.79830 | 18.65548 | 8946 ft | 256 kts | 235° |
| 2026-05-04 10:26 | 69.78543 | 18.61792 | 9350 ft | 271 kts | 212° |
| 2026-05-04 10:26 | 69.76870 | 18.59033 | 9806 ft | 286 kts | 209° |
| 2026-05-04 10:27 | 69.75088 | 18.56156 | 9975 ft | 308 kts | 209° |
| 2026-05-04 10:27 | 69.73147 | 18.53016 | 10112 ft | 331 kts | 209° |
| 2026-05-04 10:27 | 69.71088 | 18.49685 | 10424 ft | 345 kts | 209° |
| 2026-05-04 10:27 | 69.68978 | 18.46270 | 11037 ft | 350 kts | 210° |
| 2026-05-04 10:28 | 69.66847 | 18.42829 | 11703 ft | 353 kts | 209° |
| 2026-05-04 10:28 | 69.64688 | 18.39354 | 12355 ft | 356 kts | 209° |
| 2026-05-04 10:28 | 69.62516 | 18.35872 | 13002 ft | 360 kts | 209° |
| 2026-05-04 10:28 | 69.60320 | 18.32356 | 13637 ft | 363 kts | 209° |
| 2026-05-04 10:29 | 69.58108 | 18.28824 | 14239 ft | 364 kts | 210° |
| 2026-05-04 10:29 | 69.55901 | 18.25312 | 15030 ft | 362 kts | 210° |
| 2026-05-04 10:29 | 69.53706 | 18.21827 | 15725 ft | 362 kts | 210° |
| 2026-05-04 10:29 | 69.51499 | 18.18332 | 16366 ft | 363 kts | 210° |
| 2026-05-04 10:30 | 69.49283 | 18.14827 | 16985 ft | 365 kts | 210° |
| 2026-05-04 10:30 | 69.47058 | 18.11313 | 17607 ft | 366 kts | 210° |
| 2026-05-04 10:30 | 69.44822 | 18.07797 | 18157 ft | 368 kts | 210° |
| 2026-05-04 10:30 | 69.42573 | 18.04274 | 18652 ft | 370 kts | 210° |
| 2026-05-04 10:31 | 69.40313 | 18.00740 | 19130 ft | 373 kts | 210° |
| 2026-05-04 10:31 | 69.38064 | 17.97220 | 19629 ft | 375 kts | 210° |
| 2026-05-04 10:32 | 69.24216 | 17.74534 | 22498 ft | 390 kts | 211° |
| 2026-05-04 10:33 | 69.21859 | 17.70714 | 22937 ft | 393 kts | 211° |
| 2026-05-04 10:33 | 69.19480 | 17.66869 | 23314 ft | 396 kts | 211° |
| 2026-05-04 10:33 | 69.17082 | 17.63004 | 23656 ft | 399 kts | 211° |
| 2026-05-04 10:33 | 69.14667 | 17.59125 | 24000 ft | 402 kts | 211° |
| 2026-05-04 10:34 | 69.12229 | 17.55228 | 24334 ft | 405 kts | 211° |
| 2026-05-04 10:34 | 69.09770 | 17.51314 | 24664 ft | 408 kts | 211° |
| 2026-05-04 10:34 | 69.07324 | 17.47426 | 24971 ft | 410 kts | 211° |
| 2026-05-04 10:34 | 69.04837 | 17.43478 | 25277 ft | 413 kts | 211° |
| 2026-05-04 10:35 | 69.02325 | 17.39494 | 25595 ft | 417 kts | 211° |
| 2026-05-04 10:35 | 68.99787 | 17.35483 | 25914 ft | 419 kts | 211° |